Time;durP1;ratioP1;P1;durP2;ratioP2;P2;SDS_P1;SDS_P2;PMS_P1;PMS_P2;Temp;Humidity;BMP_temperature;BMP_pressure;BME280_temperature;BME280_humidity;BME280_pressure;Samples;Min_cycle;Max_cycle;Signal;HPM_P1;HPM_P2
2021/06/24 00:01:09;;;;;;;0.00;0.00;;;16.50;99.90;;;;;;5020177;28;20042;-87
2021/06/24 00:03:36;;;;;;;0.00;0.00;;;16.40;99.90;;;;;;5024105;28;20033;-87
2021/06/24 00:06:04;;;;;;;0.10;0.10;;;16.40;99.90;;;;;;5015936;28;20280;-88
2021/06/24 00:08:30;;;;;;;0.10;0.10;;;16.30;99.90;;;;;;5024244;28;20614;-88
2021/06/24 00:10:57;;;;;;;0.20;0.20;;;16.20;99.90;;;;;;5025461;28;20037;-88
2021/06/24 00:13:24;;;;;;;4.47;0.25;;;16.20;99.90;;;;;;5028321;28;20026;-88
2021/06/24 00:15:50;;;;;;;;;;;16.20;99.90;;;;;;5020817;28;20025;-88
2021/06/24 00:18:16;;;;;;;0.28;0.28;;;16.20;99.90;;;;;;5026031;28;19909;-88
2021/06/24 00:20:44;;;;;;;0.60;0.30;;;16.20;99.90;;;;;;5025624;28;20034;-88
2021/06/24 00:23:17;;;;;;;0.00;0.00;;;16.20;99.90;;;;;;5016709;28;20030;-88
2021/06/24 00:25:51;;;;;;;0.10;0.10;;;16.10;99.90;;;;;;5013085;28;20507;-88
2021/06/24 00:28:19;;;;;;;0.20;0.20;;;16.10;99.90;;;;;;5019033;28;20034;-88
2021/06/24 00:30:47;;;;;;;0.20;0.20;;;16.00;99.90;;;;;;5025579;28;20049;-88
2021/06/24 00:33:14;;;;;;;0.00;0.00;;;15.90;99.90;;;;;;5016271;28;20021;-88
2021/06/24 00:35:41;;;;;;;0.00;0.00;;;15.90;99.90;;;;;;5016132;28;20610;-88
2021/06/24 00:38:07;;;;;;;0.20;0.20;;;15.80;99.90;;;;;;5038641;28;20029;-88
2021/06/24 00:40:36;;;;;;;0.10;0.10;;;15.80;99.90;;;;;;5026932;28;20104;-88
2021/06/24 00:43:04;;;;;;;0.00;0.00;;;15.80;99.90;;;;;;5025398;28;20518;-88
2021/06/24 00:45:29;;;;;;;0.10;0.10;;;15.80;99.90;;;;;;5028492;28;20029;-88
2021/06/24 00:47:55;;;;;;;0.10;0.10;;;15.80;99.90;;;;;;5030954;28;20403;-88
2021/06/24 00:50:22;;;;;;;0.00;0.00;;;15.80;99.90;;;;;;5021076;28;20033;-88
2021/06/24 00:52:47;;;;;;;0.00;0.00;;;15.70;99.90;;;;;;5019367;28;20105;-88
2021/06/24 00:58:12;;;;;;;0.15;0.15;;;15.70;99.90;;;;;;5014513;28;20035;-88
2021/06/24 01:00:39;;;;;;;0.10;0.10;;;15.60;99.90;;;;;;5023797;28;20056;-88
2021/06/24 01:03:05;;;;;;;0.00;0.00;;;15.70;99.90;;;;;;5024678;28;20387;-88
2021/06/24 01:05:32;;;;;;;0.10;0.10;;;15.90;99.90;;;;;;5025190;28;20071;-88
2021/06/24 01:08:00;;;;;;;0.00;0.00;;;15.90;99.90;;;;;;5015062;28;20100;-88
2021/06/24 01:10:25;;;;;;;0.30;0.30;;;15.90;99.90;;;;;;5015356;28;20448;-88
2021/06/24 01:12:52;;;;;;;0.00;0.00;;;15.80;99.90;;;;;;5023103;28;20041;-89
2021/06/24 01:15:18;;;;;;;0.05;0.05;;;15.70;99.90;;;;;;5022041;28;20021;-89
2021/06/24 01:17:44;;;;;;;0.00;0.00;;;15.70;99.90;;;;;;5032729;28;20487;-89
2021/06/24 01:20:10;;;;;;;0.40;0.40;;;15.70;99.90;;;;;;5022399;28;20048;-88
2021/06/24 01:22:36;;;;;;;0.05;0.03;;;15.70;99.90;;;;;;5024376;28;20034;-88
2021/06/24 01:25:03;;;;;;;0.00;0.00;;;15.40;99.90;;;;;;5024505;28;20076;-88
2021/06/24 01:27:29;;;;;;;0.28;0.28;;;15.50;99.90;;;;;;5035686;28;20021;-88
2021/06/24 01:29:55;;;;;;;0.00;0.00;;;15.40;99.90;;;;;;5035698;28;20033;-88
2021/06/24 01:32:22;;;;;;;0.10;0.10;;;15.40;99.90;;;;;;5026543;28;20033;-87
2021/06/24 01:34:47;;;;;;;0.10;0.10;;;15.20;99.90;;;;;;5035430;28;20029;-89
2021/06/24 01:37:13;;;;;;;0.10;0.10;;;15.20;99.90;;;;;;5019601;28;20072;-88
2021/06/24 01:39:39;;;;;;;0.10;0.10;;;15.10;99.90;;;;;;5026631;28;20036;-89
2021/06/24 01:42:05;;;;;;;0.40;0.40;;;15.10;99.90;;;;;;5030281;28;20450;-88
2021/06/24 01:44:36;;;;;;;0.00;0.00;;;15.10;99.90;;;;;;5029151;28;20034;-88
2021/06/24 01:47:03;;;;;;;0.08;0.08;;;15.10;99.90;;;;;;5015490;28;20057;-88
2021/06/24 01:49:30;;;;;;;0.20;0.20;;;15.10;99.90;;;;;;5025501;28;20822;-88
2021/06/24 01:51:57;;;;;;;0.00;0.00;;;15.10;99.90;;;;;;5023765;28;20060;-89
2021/06/24 01:54:23;;;;;;;0.00;0.00;;;15.10;99.90;;;;;;5033489;28;20025;-88
2021/06/24 01:56:49;;;;;;;0.10;0.10;;;15.10;99.90;;;;;;5031666;28;20029;-87
2021/06/24 01:59:15;;;;;;;0.00;0.00;;;15.20;99.90;;;;;;5021839;28;20022;-87
2021/06/24 02:01:41;;;;;;;0.10;0.10;;;15.30;99.90;;;;;;5014659;28;20412;-87
2021/06/24 02:04:07;;;;;;;0.00;0.00;;;15.50;99.90;;;;;;5015068;28;20026;-88
2021/06/24 02:06:34;;;;;;;0.00;0.00;;;15.50;99.90;;;;;;5014813;28;20069;-88
2021/06/24 02:09:00;;;;;;;0.10;0.10;;;15.30;99.90;;;;;;5023135;28;20040;-88
2021/06/24 02:11:26;;;;;;;0.10;0.10;;;15.30;99.90;;;;;;5021505;28;20781;-88
2021/06/24 02:13:52;;;;;;;0.00;0.00;;;15.40;99.90;;;;;;5032682;28;20032;-88
2021/06/24 02:16:17;;;;;;;0.00;0.00;;;15.40;99.90;;;;;;5033090;28;20029;-88
2021/06/24 02:18:43;;;;;;;0.10;0.10;;;15.40;99.90;;;;;;5030944;28;20121;-88
2021/06/24 02:21:09;;;;;;;0.10;0.10;;;15.30;99.90;;;;;;5013893;28;20041;-88
2021/06/24 02:23:35;;;;;;;0.00;0.00;;;15.30;99.90;;;;;;5022036;28;20029;-88
2021/06/24 02:26:01;;;;;;;0.00;0.00;;;15.40;99.90;;;;;;5030579;28;20029;-88
2021/06/24 02:28:27;;;;;;;0.20;0.17;;;15.30;99.90;;;;;;5033485;28;20025;-88
2021/06/24 02:30:54;;;;;;;0.00;0.00;;;15.30;99.90;;;;;;5013688;28;20022;-88
2021/06/24 02:33:20;;;;;;;0.00;0.00;;;15.20;99.90;;;;;;5026887;28;20021;-88
2021/06/24 02:35:51;;;;;;;0.00;0.00;;;15.20;99.90;;;;;;5016120;28;20037;-88
2021/06/24 02:38:18;;;;;;;0.00;0.00;;;15.20;99.90;;;;;;5012903;28;20080;-88
2021/06/24 02:40:44;;;;;;;0.00;0.00;;;15.10;99.90;;;;;;5025803;28;20060;-88
2021/06/24 02:43:10;;;;;;;0.07;0.07;;;15.20;99.90;;;;;;5025637;28;20057;-88
2021/06/24 02:45:36;;;;;;;0.00;0.00;;;15.30;99.90;;;;;;5029777;28;20029;-88
2021/06/24 02:48:01;;;;;;;0.10;0.10;;;15.30;99.90;;;;;;5031864;28;20034;-88
2021/06/24 02:50:27;;;;;;;0.00;0.00;;;15.30;99.90;;;;;;5030184;28;20037;-88
2021/06/24 02:52:53;;;;;;;0.00;0.00;;;15.30;99.90;;;;;;5026952;28;20064;-89
2021/06/24 02:55:19;;;;;;;0.00;0.00;;;15.30;99.90;;;;;;5021998;28;20030;-88
2021/06/24 02:57:46;;;;;;;0.07;0.07;;;15.20;99.90;;;;;;5015607;28;20022;-88
2021/06/24 03:00:12;;;;;;;;;;;14.90;99.90;;;;;;5020542;28;20029;-88
2021/06/24 03:02:41;;;;;;;;;;;14.90;99.90;;;;;;5026842;28;20383;-88
2021/06/24 03:05:07;;;;;;;0.00;0.00;;;14.90;99.90;;;;;;5024358;28;20035;-88
2021/06/24 03:07:33;;;;;;;0.10;0.10;;;14.90;99.90;;;;;;5030252;28;20103;-88
2021/06/24 03:10:00;;;;;;;0.00;0.00;;;14.70;99.90;;;;;;5031375;28;20443;-87
2021/06/24 03:12:25;;;;;;;0.00;0.00;;;14.80;1.00;;;;;;5028644;28;20017;-88
2021/06/24 03:14:51;;;;;;;0.00;0.00;;;14.80;1.00;;;;;;5012638;28;20479;-87
2021/06/24 03:17:17;;;;;;;0.00;0.00;;;14.70;93.60;;;;;;5028443;28;20033;-87
2021/06/24 03:19:43;;;;;;;0.00;0.00;;;14.70;99.90;;;;;;5030594;28;20029;-87
2021/06/24 03:22:08;;;;;;;0.00;0.00;;;14.80;99.90;;;;;;5030080;28;20033;-87
2021/06/24 03:24:34;;;;;;;0.07;0.07;;;14.90;99.90;;;;;;5011882;28;20044;-87
2021/06/24 03:27:00;;;;;;;0.00;0.00;;;15.10;5.10;;;;;;5028590;28;20033;-87
2021/06/24 03:29:28;;;;;;;0.00;0.00;;;14.90;99.90;;;;;;5030413;28;20029;-87
2021/06/24 03:31:58;;;;;;;0.10;0.10;;;14.50;99.90;;;;;;5019383;28;20061;-87
2021/06/24 03:34:23;;;;;;;0.10;0.10;;;14.60;99.90;;;;;;5014724;28;20075;-86
2021/06/24 03:36:49;;;;;;;0.00;0.00;;;14.50;99.90;;;;;;5031120;28;20030;-86
2021/06/24 03:39:15;;;;;;;0.10;0.10;;;14.50;99.90;;;;;;5027046;28;20073;-86
2021/06/24 03:41:41;;;;;;;0.23;0.23;;;14.50;99.90;;;;;;5023177;28;20029;-86
2021/06/24 03:44:07;;;;;;;0.00;0.00;;;14.50;99.90;;;;;;5029458;28;20080;-86
2021/06/24 03:46:33;;;;;;;0.00;0.00;;;14.50;99.90;;;;;;5030500;28;20025;-87
2021/06/24 03:48:59;;;;;;;0.00;0.00;;;14.50;99.90;;;;;;5021467;28;20758;-88
2021/06/24 03:51:25;;;;;;;0.00;0.00;;;14.40;99.90;;;;;;5013029;28;20105;-88
2021/06/24 03:53:51;;;;;;;0.00;0.00;;;14.40;99.90;;;;;;5026749;28;20359;-88
2021/06/24 03:56:16;;;;;;;0.50;0.30;;;14.50;99.90;;;;;;5010977;28;20460;-88
2021/06/24 03:58:43;;;;;;;0.00;0.00;;;14.50;99.90;;;;;;5010909;28;20022;-88
2021/06/24 04:01:20;;;;;;;0.10;0.10;;;14.40;99.90;;;;;;5019941;28;20029;-90
2021/06/24 04:03:46;;;;;;;0.00;0.00;;;14.40;99.90;;;;;;5021525;28;20072;-92
2021/06/24 04:06:12;;;;;;;0.00;0.00;;;14.40;99.90;;;;;;5034850;28;20072;-93
2021/06/24 04:08:38;;;;;;;0.00;0.00;;;14.40;99.90;;;;;;5025943;28;20082;-93
2021/06/24 04:11:05;;;;;;;0.00;0.00;;;14.30;99.90;;;;;;5025485;28;20022;-93
2021/06/24 04:13:31;;;;;;;0.00;0.00;;;14.20;99.90;;;;;;5031984;28;20029;-93
2021/06/24 04:15:57;;;;;;;0.10;0.10;;;14.30;99.90;;;;;;5038578;28;20022;-93
2021/06/24 04:18:23;;;;;;;0.00;0.00;;;14.00;99.90;;;;;;5027813;28;20018;-91
2021/06/24 04:20:48;;;;;;;0.00;0.00;;;14.10;92.00;;;;;;5028180;28;20519;-91
2021/06/24 04:23:14;;;;;;;0.10;0.10;;;14.10;76.30;;;;;;5029373;28;20021;-90
2021/06/24 04:25:40;;;;;;;0.20;0.20;;;14.20;99.90;;;;;;5026005;28;20060;-90
2021/06/24 04:28:07;;;;;;;0.00;0.00;;;14.30;99.90;;;;;;5028868;28;20121;-90
2021/06/24 04:30:34;;;;;;;0.00;0.00;;;14.20;99.90;;;;;;5022332;28;20049;-90
2021/06/24 04:33:08;;;;;;;0.00;0.00;;;14.30;99.90;;;;;;5036129;28;20059;-90
2021/06/24 04:35:36;;;;;;;0.00;0.00;;;14.30;1.00;;;;;;5028626;28;20085;-90
2021/06/24 04:38:02;;;;;;;0.00;0.00;;;14.30;99.90;;;;;;5028366;28;20029;-89
2021/06/24 04:40:28;;;;;;;0.38;0.38;;;14.40;23.10;;;;;;5028385;28;20372;-91
2021/06/24 04:42:54;;;;;;;0.00;0.00;;;14.40;99.90;;;;;;5028394;28;20482;-91
2021/06/24 04:45:20;;;;;;;0.00;0.00;;;14.20;1.00;;;;;;5029385;28;20033;-90
2021/06/24 04:47:48;;;;;;;0.00;0.00;;;14.20;1.00;;;;;;5019450;28;20086;-91
2021/06/24 04:50:15;;;;;;;0.00;0.00;;;14.20;3.00;;;;;;5012613;28;20316;-89
2021/06/24 04:52:41;;;;;;;0.00;0.00;;;14.30;1.00;;;;;;5010285;28;20025;-90
2021/06/24 04:55:08;;;;;;;0.00;0.00;;;14.40;99.90;;;;;;5024496;28;20525;-91
2021/06/24 04:57:34;;;;;;;0.00;0.00;;;14.40;99.90;;;;;;5031263;28;20017;-91
2021/06/24 05:00:00;;;;;;;0.00;0.00;;;14.40;99.90;;;;;;5029597;28;20055;-89
2021/06/24 05:02:26;;;;;;;0.00;0.00;;;14.20;99.90;;;;;;5029556;28;20049;-89
2021/06/24 05:04:52;;;;;;;0.00;0.00;;;14.30;1.00;;;;;;5016765;28;20038;-88
2021/06/24 05:07:18;;;;;;;0.00;0.00;;;14.20;99.90;;;;;;5024023;28;20417;-89
2021/06/24 05:09:45;;;;;;;0.00;0.00;;;14.20;99.90;;;;;;5022660;28;20034;-88
2021/06/24 05:12:12;;;;;;;0.20;0.20;;;14.10;99.90;;;;;;5020931;28;20025;-88
2021/06/24 05:14:41;;;;;;;0.00;0.00;;;13.90;99.90;;;;;;5044442;28;20021;-89
2021/06/24 05:17:12;;;;;;;0.00;0.00;;;13.80;99.90;;;;;;5030529;28;20025;-89
2021/06/24 05:19:38;;;;;;;0.00;0.00;;;13.90;99.90;;;;;;5028426;28;20029;-89
2021/06/24 05:22:04;;;;;;;0.43;0.30;;;14.00;99.90;;;;;;5028550;28;20171;-89
2021/06/24 05:24:30;;;;;;;0.00;0.00;;;14.00;99.90;;;;;;5027701;28;20487;-89
2021/06/24 05:26:56;;;;;;;0.00;0.00;;;14.10;99.90;;;;;;5009924;28;20048;-89
2021/06/24 05:29:22;;;;;;;0.00;0.00;;;14.10;99.90;;;;;;5008424;28;20030;-89
2021/06/24 05:31:47;;;;;;;0.07;0.07;;;14.30;99.90;;;;;;5009597;28;20048;-90
2021/06/24 05:34:13;;;;;;;0.13;0.13;;;14.30;99.90;;;;;;5009109;28;20033;-90
2021/06/24 05:36:39;;;;;;;0.10;0.10;;;14.50;99.90;;;;;;5010033;28;20659;-90
2021/06/24 05:39:05;;;;;;;0.00;0.00;;;14.40;99.90;;;;;;5008908;28;20029;-89
2021/06/24 05:41:31;;;;;;;0.10;0.10;;;14.60;99.90;;;;;;5009090;28;20032;-89
2021/06/24 05:43:57;;;;;;;0.10;0.10;;;14.50;99.90;;;;;;5009133;28;20026;-90
2021/06/24 05:46:22;;;;;;;0.00;0.00;;;14.60;99.90;;;;;;5009773;28;20101;-89
2021/06/24 05:48:51;;;;;;;0.10;0.10;;;14.50;99.90;;;;;;5008523;28;20034;-89
2021/06/24 05:51:18;;;;;;;0.00;0.00;;;14.50;99.90;;;;;;5009888;28;20029;-89
2021/06/24 05:53:44;;;;;;;;;;;14.50;99.90;;;;;;5010147;28;20473;-89
2021/06/24 05:56:10;;;;;;;0.00;0.00;;;14.50;99.90;;;;;;5044886;28;19905;-89
2021/06/24 05:58:36;;;;;;;0.00;0.00;;;14.60;99.90;;;;;;5049507;28;20025;-89
2021/06/24 06:01:02;;;;;;;0.00;0.00;;;14.70;99.90;;;;;;5048955;28;20029;-89
2021/06/24 06:03:28;;;;;;;0.00;0.00;;;14.50;99.90;;;;;;5049576;28;20029;-89
2021/06/24 06:05:54;;;;;;;0.00;0.00;;;14.30;99.90;;;;;;5047472;28;20041;-89
2021/06/24 06:08:20;;;;;;;0.20;0.20;;;14.40;99.90;;;;;;5065368;28;20025;-89
2021/06/24 06:10:46;;;;;;;0.10;0.10;;;14.50;99.90;;;;;;5048540;28;20044;-89
2021/06/24 06:13:12;;;;;;;0.00;0.00;;;14.50;99.90;;;;;;5069430;28;20406;-89
2021/06/24 06:15:41;;;;;;;0.30;0.15;;;14.70;99.90;;;;;;5053073;28;20047;-90
2021/06/24 06:18:14;;;;;;;0.05;0.05;;;14.80;99.90;;;;;;5054120;28;20025;-89
2021/06/24 06:20:40;;;;;;;0.00;0.00;;;14.90;99.90;;;;;;5053826;28;20103;-90
2021/06/24 06:23:06;;;;;;;0.00;0.00;;;15.00;99.90;;;;;;5052535;28;20440;-90
2021/06/24 06:25:32;;;;;;;0.10;0.10;;;14.90;99.90;;;;;;5047659;28;20483;-90
2021/06/24 06:27:58;;;;;;;0.00;0.00;;;14.90;99.90;;;;;;5048905;28;20061;-90
2021/06/24 06:30:26;;;;;;;0.00;0.00;;;15.00;99.90;;;;;;5048577;28;20036;-90
2021/06/24 06:32:52;;;;;;;0.00;0.00;;;14.90;99.90;;;;;;5048793;28;20537;-90
2021/06/24 06:35:18;;;;;;;0.00;0.00;;;14.80;99.90;;;;;;5048947;28;20159;-90
2021/06/24 06:37:44;;;;;;;0.00;0.00;;;14.80;99.90;;;;;;5033439;28;20049;-91
2021/06/24 06:40:12;;;;;;;0.00;0.00;;;15.10;99.90;;;;;;5033286;28;20026;-90
2021/06/24 06:42:38;;;;;;;0.00;0.00;;;15.10;99.90;;;;;;5048155;28;20025;-89
2021/06/24 06:45:05;;;;;;;0.00;0.00;;;15.30;99.90;;;;;;5032543;28;20032;-90
2021/06/24 06:47:31;;;;;;;0.00;0.00;;;15.30;99.90;;;;;;5028923;28;20033;-89
2021/06/24 06:49:56;;;;;;;0.00;0.00;;;15.10;99.90;;;;;;5013210;28;20034;-89
2021/06/24 06:52:22;;;;;;;0.10;0.10;;;15.10;99.90;;;;;;5012592;28;20030;-90
2021/06/24 06:54:48;;;;;;;0.00;0.00;;;15.10;99.90;;;;;;5018413;28;20521;-89
2021/06/24 06:57:14;;;;;;;3.20;0.20;;;14.90;99.90;;;;;;5033428;28;20029;-90
2021/06/24 06:59:41;;;;;;;0.17;0.17;;;15.00;99.90;;;;;;5033712;28;20029;-89
2021/06/24 07:02:08;;;;;;;0.00;0.00;;;15.00;99.90;;;;;;5033545;28;20033;-90
2021/06/24 07:04:33;;;;;;;;;;;15.40;99.90;;;;;;5034257;28;20032;-90
2021/06/24 07:06:59;;;;;;;0.23;0.20;;;16.00;99.90;;;;;;5048360;28;19921;-89
2021/06/24 07:09:25;;;;;;;0.03;0.03;;;16.20;99.90;;;;;;5031978;28;20570;-90
2021/06/24 07:11:51;;;;;;;0.10;0.10;;;15.90;99.90;;;;;;5048635;28;20021;-90
2021/06/24 07:14:18;;;;;;;0.00;0.00;;;16.30;99.90;;;;;;5032970;28;20021;-90
2021/06/24 07:16:44;;;;;;;0.00;0.00;;;16.50;99.90;;;;;;5048571;28;20052;-89
2021/06/24 07:19:10;;;;;;;0.00;0.00;;;16.30;99.90;;;;;;5031150;28;20029;-89
2021/06/24 07:21:36;;;;;;;0.00;0.00;;;16.00;99.90;;;;;;5032698;28;20025;-90
2021/06/24 07:24:01;;;;;;;0.10;0.10;;;16.30;99.90;;;;;;5047576;28;20042;-89
2021/06/24 07:26:28;;;;;;;0.00;0.00;;;16.40;99.90;;;;;;5042043;28;20030;-89
2021/06/24 07:28:54;;;;;;;0.10;0.10;;;16.70;99.90;;;;;;5011518;28;20786;-90
2021/06/24 07:31:20;;;;;;;0.00;0.00;;;16.90;99.90;;;;;;5011319;28;20037;-90
2021/06/24 07:33:46;;;;;;;0.10;0.10;;;17.00;99.90;;;;;;5012060;28;20822;-90
2021/06/24 07:36:12;;;;;;;0.00;0.00;;;17.20;99.90;;;;;;5011631;28;20124;-89
2021/06/24 07:38:37;;;;;;;0.00;0.00;;;17.10;99.90;;;;;;5013038;28;20408;-90
2021/06/24 07:41:03;;;;;;;0.00;0.00;;;17.00;99.90;;;;;;5011576;28;20119;-90
2021/06/24 07:43:29;;;;;;;0.00;0.00;;;16.90;99.90;;;;;;5011620;28;20034;-89
2021/06/24 07:45:55;;;;;;;0.00;0.00;;;17.10;99.90;;;;;;5011559;28;20054;-89
2021/06/24 07:48:21;;;;;;;0.00;0.00;;;16.80;99.90;;;;;;5011449;28;20033;-89
2021/06/24 07:50:46;;;;;;;0.00;0.00;;;16.60;99.90;;;;;;5011724;28;20041;-89
2021/06/24 07:53:13;;;;;;;0.00;0.00;;;16.60;99.90;;;;;;5011722;28;20491;-89
2021/06/24 07:55:39;;;;;;;;;;;16.70;99.90;;;;;;5012283;28;20492;-90
2021/06/24 07:58:07;;;;;;;0.00;0.00;;;16.70;99.90;;;;;;5011647;28;19906;-90
2021/06/24 08:00:34;;;;;;;0.20;0.20;;;16.50;99.90;;;;;;5011785;28;20061;-89
2021/06/24 08:03:00;;;;;;;0.08;0.08;;;16.40;99.90;;;;;;5010932;28;20034;-89
2021/06/24 08:05:26;;;;;;;0.00;0.00;;;16.30;99.90;;;;;;5011951;28;20105;-90
2021/06/24 08:07:53;;;;;;;1.35;0.38;;;16.30;99.90;;;;;;4994647;28;20034;-90
2021/06/24 08:10:19;;;;;;;0.00;0.00;;;16.20;99.90;;;;;;5012155;28;20033;-90
2021/06/24 08:12:46;;;;;;;0.00;0.00;;;16.20;99.90;;;;;;4994651;28;20022;-90
2021/06/24 08:15:15;;;;;;;0.00;0.00;;;16.40;99.90;;;;;;5012019;28;20067;-90
2021/06/24 08:17:42;;;;;;;0.10;0.10;;;16.60;99.90;;;;;;4994118;28;20030;-90
2021/06/24 08:20:09;;;;;;;0.00;0.00;;;16.40;99.90;;;;;;5012011;28;20534;-90
2021/06/24 08:22:36;;;;;;;0.00;0.00;;;16.30;99.90;;;;;;4994576;28;20513;-90
2021/06/24 08:25:02;;;;;;;0.22;0.22;;;16.60;99.90;;;;;;4994680;28;20072;-90
2021/06/24 08:27:28;;;;;;;0.00;0.00;;;17.10;99.90;;;;;;5018530;28;20041;-90
2021/06/24 08:29:56;;;;;;;0.00;0.00;;;17.30;99.90;;;;;;5014079;28;20452;-90
2021/06/24 08:32:22;;;;;;;0.17;0.17;;;17.40;99.90;;;;;;5030365;28;20033;-90
2021/06/24 08:34:48;;;;;;;0.10;0.10;;;17.20;99.90;;;;;;5013916;28;20032;-90
2021/06/24 08:37:14;;;;;;;0.50;0.20;;;17.00;99.90;;;;;;5014284;28;20025;-90
2021/06/24 08:39:40;;;;;;;0.00;0.00;;;16.60;99.90;;;;;;5014048;28;20491;-90
2021/06/24 08:42:06;;;;;;;0.00;0.00;;;16.10;99.90;;;;;;5031940;28;20029;-89
2021/06/24 08:44:33;;;;;;;0.10;0.10;;;16.10;99.90;;;;;;5014033;28;20055;-89
2021/06/24 08:46:59;;;;;;;0.15;0.15;;;16.20;99.90;;;;;;5014011;28;20075;-89
2021/06/24 08:49:26;;;;;;;1.53;0.23;;;16.20;99.90;;;;;;5014364;28;20037;-90
2021/06/24 08:51:58;;;;;;;0.20;0.20;;;16.40;99.90;;;;;;5013920;28;20103;-90
2021/06/24 08:54:24;;;;;;;0.03;0.03;;;16.10;99.90;;;;;;5030714;28;20749;-90
2021/06/24 08:56:50;;;;;;;0.00;0.00;;;16.40;99.90;;;;;;5032686;28;20033;-90
2021/06/24 08:59:16;;;;;;;0.00;0.00;;;16.60;99.90;;;;;;5032965;28;20029;-90
2021/06/24 09:01:57;;;;;;;0.30;0.30;;;17.10;91.90;;;;;;5050368;28;20260;-89
2021/06/24 09:04:28;;;;;;;0.00;0.00;;;16.90;99.90;;;;;;5050754;28;20057;-89
2021/06/24 09:07:04;;;;;;;0.03;0.03;;;16.70;99.90;;;;;;5042461;28;20418;-90
2021/06/24 09:09:35;;;;;;;0.00;0.00;;;16.60;99.90;;;;;;5030796;28;20030;-89
2021/06/24 09:12:04;;;;;;;0.10;0.10;;;16.40;99.90;;;;;;5010885;28;20026;-90
2021/06/24 09:14:41;;;;;;;0.10;0.10;;;17.10;99.90;;;;;;5026259;28;20022;-90
2021/06/24 09:17:09;;;;;;;0.00;0.00;;;16.70;99.90;;;;;;5026132;28;20018;-91
2021/06/24 09:19:37;;;;;;;0.80;0.47;;;17.10;99.90;;;;;;5010952;28;20030;-90
2021/06/24 09:22:07;;;;;;;0.17;0.17;;;17.50;99.90;;;;;;5010713;28;20037;-90
2021/06/24 09:24:40;;;;;;;0.38;0.10;;;17.70;99.90;;;;;;5026138;28;20514;-90
2021/06/24 09:27:23;;;;;;;0.65;0.20;;;18.20;99.90;;;;;;5025670;28;20120;-91
2021/06/24 09:30:05;;;;;;;0.08;0.05;;;18.30;99.90;;;;;;5025584;28;20402;-90
2021/06/24 09:32:36;;;;;;;0.10;0.10;;;18.80;99.90;;;;;;5009598;28;20049;-90
2021/06/24 09:35:08;;;;;;;1.17;0.30;;;19.20;99.90;;;;;;5011154;28;20030;-90
2021/06/24 09:38:00;;;;;;;0.20;0.20;;;20.50;99.90;;;;;;5010012;28;20117;-90
2021/06/24 09:40:49;;;;;;;1.20;0.38;;;19.60;99.90;;;;;;5026377;28;20034;-90
2021/06/24 09:43:35;;;;;;;0.60;0.60;;;19.10;99.90;;;;;;5009779;28;20049;-89
2021/06/24 09:46:17;;;;;;;0.00;0.00;;;18.70;99.90;;;;;;5011895;28;20029;-90
2021/06/24 09:48:45;;;;;;;0.25;0.25;;;20.50;99.90;;;;;;5013578;28;20509;-90
2021/06/24 09:51:14;;;;;;;0.55;0.25;;;22.00;99.90;;;;;;5014681;28;20034;-90
2021/06/24 09:53:53;;;;;;;0.40;0.32;;;22.00;99.90;;;;;;5015303;28;20101;-90
2021/06/24 09:56:20;;;;;;;0.13;0.13;;;21.70;99.90;;;;;;5013930;28;20030;-90
2021/06/24 09:58:47;;;;;;;0.00;0.00;;;22.20;99.90;;;;;;5015399;28;20018;-90
2021/06/24 10:01:28;;;;;;;2.03;0.65;;;22.10;99.90;;;;;;5013956;28;20450;-90
2021/06/24 10:03:56;;;;;;;0.00;0.00;;;22.90;99.90;;;;;;5013933;28;20529;-91
2021/06/24 10:06:23;;;;;;;0.10;0.10;;;22.70;99.90;;;;;;5013365;28;20057;-90
2021/06/24 10:08:49;;;;;;;0.20;0.20;;;21.70;99.90;;;;;;5013761;28;20037;-91
2021/06/24 10:11:15;;;;;;;0.00;0.00;;;21.20;99.90;;;;;;5013135;28;20125;-91
2021/06/24 10:13:41;;;;;;;0.10;0.10;;;20.90;99.90;;;;;;5013735;28;20049;-90
2021/06/24 10:16:08;;;;;;;0.50;0.13;;;21.70;99.90;;;;;;5013392;28;20052;-90
2021/06/24 10:18:35;;;;;;;0.20;0.20;;;20.90;99.90;;;;;;5014660;28;20496;-90
2021/06/24 10:21:02;;;;;;;0.00;0.00;;;20.80;99.90;;;;;;5013274;28;20053;-90
2021/06/24 10:23:28;;;;;;;;;;;21.40;99.90;;;;;;5014089;28;20026;-91
2021/06/24 10:25:54;;;;;;;0.00;0.00;;;21.30;99.90;;;;;;5013632;28;19906;-90
2021/06/24 10:28:20;;;;;;;0.00;0.00;;;25.40;99.90;;;;;;5018848;28;20041;-90
2021/06/24 10:30:46;;;;;;;3.58;0.73;;;24.40;99.90;;;;;;5048754;28;20141;-91
2021/06/24 10:33:15;;;;;;;0.03;0.03;;;23.50;99.90;;;;;;5049250;28;20491;-91
2021/06/24 10:35:48;;;;;;;0.68;0.10;;;23.60;99.90;;;;;;5049186;28;20716;-90
2021/06/24 10:38:15;;;;;;;0.20;0.15;;;23.30;99.90;;;;;;5048689;28;20394;-90
2021/06/24 10:40:58;;;;;;;0.20;0.20;;;23.70;99.90;;;;;;5049370;28;20033;-90
2021/06/24 10:43:46;;;;;;;0.17;0.13;;;22.20;99.90;;;;;;5034284;28;20116;-90
2021/06/24 10:46:14;;;;;;;0.22;0.13;;;20.90;99.90;;;;;;5049585;28;20033;-90
2021/06/24 10:48:40;;;;;;;0.15;0.15;;;20.70;99.90;;;;;;5034696;28;20029;-90
2021/06/24 10:51:09;;;;;;;0.08;0.08;;;20.40;99.90;;;;;;5049635;28;20421;-90
2021/06/24 10:53:41;;;;;;;0.05;0.05;;;20.60;99.90;;;;;;5049849;28;20029;-90
2021/06/24 10:56:30;;;;;;;0.28;0.28;;;20.80;99.90;;;;;;5049810;28;20032;-90
2021/06/24 10:58:57;;;;;;;0.00;0.00;;;20.80;99.90;;;;;;5028231;28;20037;-89
2021/06/24 11:02:05;;;;;;;0.10;0.10;;;21.20;99.90;;;;;;5034369;28;20036;-90
2021/06/24 11:04:36;;;;;;;4.53;0.65;;;21.70;99.90;;;;;;4992517;28;20626;-89
2021/06/24 11:07:19;;;;;;;0.20;0.10;;;21.00;99.90;;;;;;4976215;28;20050;-89
2021/06/24 11:10:13;;;;;;;0.20;0.20;;;21.70;99.90;;;;;;4992381;28;20033;-90
2021/06/24 11:13:12;;;;;;;0.00;0.00;;;22.50;99.90;;;;;;4992349;28;20076;-90
2021/06/24 11:15:56;;;;;;;0.00;0.00;;;23.40;99.90;;;;;;4961655;28;20023;-90
2021/06/24 11:18:45;;;;;;;0.00;0.00;;;23.70;99.90;;;;;;4991946;28;20103;-90
2021/06/24 11:21:12;;;;;;;0.10;0.10;;;24.20;99.90;;;;;;4938891;28;20528;-90
2021/06/24 11:23:41;;;;;;;0.57;0.30;;;23.60;99.90;;;;;;4991839;28;20465;-90
2021/06/24 11:26:19;;;;;;;0.38;0.30;;;23.70;99.90;;;;;;4991826;28;20500;-90
2021/06/24 11:31:37;;;;;;;0.20;0.20;;;25.60;99.90;;;;;;4991290;28;20455;-90
2021/06/24 11:36:51;;;;;;;0.08;0.08;;;25.60;99.30;;;;;;4990438;28;20126;-90
2021/06/24 11:39:39;;;;;;;0.00;0.00;;;23.90;99.40;;;;;;5000087;28;20038;-89
2021/06/24 11:42:11;;;;;;;1.45;0.38;;;23.80;99.90;;;;;;5032260;28;20079;-90
2021/06/24 11:44:46;;;;;;;0.25;0.15;;;24.40;99.90;;;;;;5031880;28;20028;-90
2021/06/24 11:47:26;;;;;;;0.53;0.30;;;24.40;98.60;;;;;;5014071;28;20113;-90
2021/06/24 12:04:17;;;;;;;0.00;0.00;;;22.20;99.90;;;;;;5012021;28;20034;-90
2021/06/24 12:06:47;;;;;;;0.10;0.00;;;21.50;99.90;;;;;;5003445;28;20057;-90
2021/06/24 12:09:14;;;;;;;0.15;0.15;;;21.20;99.90;;;;;;5010459;28;20446;-90
2021/06/24 12:11:41;;;;;;;0.20;0.20;;;21.20;99.90;;;;;;5011748;28;20022;-90
2021/06/24 12:14:25;;;;;;;0.40;0.40;;;21.60;99.90;;;;;;5027488;28;20026;-90
2021/06/24 12:17:13;;;;;;;0.52;0.20;;;22.40;99.90;;;;;;5027491;28;20065;-90
2021/06/24 12:19:43;;;;;;;0.00;0.00;;;22.70;99.90;;;;;;5028064;28;20464;-90
2021/06/24 12:22:09;;;;;;;0.15;0.15;;;23.10;99.90;;;;;;5012415;28;20408;-90
2021/06/24 12:24:35;;;;;;;0.32;0.32;;;23.20;99.50;;;;;;5011153;28;20084;-90
2021/06/24 12:27:19;;;;;;;5.18;0.10;;;23.00;98.90;;;;;;5011118;28;20520;-90
2021/06/24 12:29:46;;;;;;;0.08;0.08;;;22.70;98.70;;;;;;5015411;28;20025;-90
2021/06/24 12:32:12;;;;;;;0.38;0.28;;;23.00;97.70;;;;;;5031824;28;20600;-90
2021/06/24 12:34:38;;;;;;;0.20;0.10;;;23.00;98.70;;;;;;5030916;28;20076;-90
2021/06/24 12:37:04;;;;;;;0.10;0.10;;;23.30;98.40;;;;;;5047348;28;20079;-90
2021/06/24 12:39:29;;;;;;;0.13;0.08;;;22.80;99.30;;;;;;5031730;28;20260;-90
2021/06/24 12:41:56;;;;;;;0.00;0.00;;;22.90;98.80;;;;;;5030473;28;20022;-90
2021/06/24 12:44:22;;;;;;;0.10;0.10;;;22.90;98.00;;;;;;5030323;28;20071;-90
2021/06/24 12:46:48;;;;;;;0.13;0.08;;;22.10;98.80;;;;;;5030788;28;20443;-90
2021/06/24 12:49:16;;;;;;;0.00;0.00;;;22.10;99.40;;;;;;5031493;28;20375;-90
2021/06/24 12:51:43;;;;;;;0.20;0.20;;;22.40;99.70;;;;;;5031831;28;20485;-90
2021/06/24 12:54:16;;;;;;;0.20;0.20;;;22.50;99.60;;;;;;5031741;28;20044;-89
2021/06/24 12:56:47;;;;;;;0.17;0.10;;;22.40;99.60;;;;;;5030261;28;20038;-90
2021/06/24 12:59:22;;;;;;;0.00;0.00;;;22.80;99.90;;;;;;5031295;28;20026;-90
2021/06/24 13:01:50;;;;;;;1.95;0.28;;;22.90;97.90;;;;;;5030167;28;20026;-90
2021/06/24 13:04:24;;;;;;;0.38;0.13;;;22.10;98.30;;;;;;5030158;28;20048;-90
2021/06/24 13:06:56;;;;;;;0.40;0.30;;;22.30;97.70;;;;;;5029940;28;20053;-89
2021/06/24 13:09:43;;;;;;;0.17;0.17;;;22.80;97.30;;;;;;5026073;28;20071;-87
2021/06/24 13:12:10;;;;;;;0.30;0.30;;;23.60;96.40;;;;;;5041064;28;20052;-90
2021/06/24 13:14:44;;;;;;;0.17;0.13;;;23.00;97.30;;;;;;5025738;28;20017;-90
2021/06/24 13:17:13;;;;;;;0.10;0.10;;;23.20;97.20;;;;;;5029029;28;20049;-90